Buenos Aires, Argentina
Current Conditions -  °F | °C
As of 9:00 PM on Friday 19 Dec 2014 (Local Time) from SABE Reporting Station
Clear Clear  
Wind Chill: 82°   Ceiling: Unl
Heat Index: 87°   Visibility: 6mi
Dew Point: 72°   Wind: 7mph
Humidity: 70%   Direction: 330°NNW
Pressure: 29.53"   Gusts: NA
Location:  34.61°S, 58.37°W
Report Text: SABE 200000Z 33006KT CAVOK 28/22 Q1000
Loading
Personal Weather Stations






























Interactive Weather Map New forecast layout! Learn more

10-Day Weather Forecast

Advertisements
Track Severe Weather on mobile